createdAt,value
2022-12-19T00:01:38.414Z,4.90
2022-12-19T00:04:09.288Z,4.87
2022-12-19T00:06:43.482Z,5.02
2022-12-19T00:09:12.680Z,5.15
2022-12-19T00:11:40.150Z,5.23
2022-12-19T00:14:09.338Z,5.17
2022-12-19T00:16:36.456Z,5.11
2022-12-19T00:19:03.916Z,4.99
2022-12-19T00:21:35.074Z,4.81
2022-12-19T00:24:15.354Z,4.83
2022-12-19T00:26:47.896Z,4.74
2022-12-19T00:29:14.849Z,4.85
2022-12-19T00:31:41.899Z,4.81
2022-12-19T00:34:09.631Z,4.82
2022-12-19T00:36:36.541Z,4.99
2022-12-19T00:39:07.793Z,5.20
2022-12-19T00:41:37.527Z,5.30
2022-12-19T00:44:12.252Z,5.56
2022-12-19T00:46:39.297Z,5.71
2022-12-19T00:49:06.557Z,5.62
2022-12-19T00:51:35.673Z,5.38
2022-12-19T00:54:05.475Z,5.19
2022-12-19T00:56:37.547Z,4.96
2022-12-19T00:59:07.382Z,5.05
2022-12-19T01:01:38.112Z,5.20
2022-12-19T01:06:57.852Z,5.30
2022-12-19T01:09:31.362Z,5.38
2022-12-19T01:12:17.181Z,5.23
2022-12-19T01:14:44.244Z,5.44
2022-12-19T01:17:11.248Z,5.31
2022-12-19T01:19:43.684Z,5.52
2022-12-19T01:22:12.833Z,5.21
2022-12-19T01:24:39.968Z,5.31
2022-12-19T01:27:08.005Z,5.41
2022-12-19T01:29:35.543Z,5.49
2022-12-19T01:32:05.911Z,5.27
2022-12-19T01:34:33.015Z,5.21
2022-12-19T01:36:59.875Z,5.17
2022-12-19T01:39:30.418Z,5.04
2022-12-19T01:41:59.483Z,4.99
2022-12-19T01:44:26.710Z,5.17
2022-12-19T01:47:00.345Z,5.18
2022-12-19T01:49:35.324Z,5.26
2022-12-19T01:52:11.953Z,5.11
2022-12-19T01:54:48.568Z,5.29
2022-12-19T01:57:19.748Z,5.26
2022-12-19T01:59:54.331Z,5.24
2022-12-19T02:02:38.019Z,5.05
2022-12-19T02:05:05.918Z,4.94
2022-12-19T02:07:34.031Z,5.08
2022-12-19T02:10:00.986Z,5.07
2022-12-19T02:12:39.950Z,5.20
2022-12-19T02:15:09.918Z,5.29
2022-12-19T02:17:59.289Z,5.20
2022-12-19T02:20:49.479Z,5.24
2022-12-19T02:23:35.033Z,5.34
2022-12-19T02:26:23.647Z,5.45
2022-12-19T02:29:12.882Z,5.56
2022-12-19T02:32:18.729Z,5.49
2022-12-19T02:35:37.549Z,5.45
2022-12-19T02:38:20.322Z,5.49
2022-12-19T02:41:07.522Z,5.42
2022-12-19T02:43:39.998Z,5.43
2022-12-19T02:46:10.167Z,5.53
2022-12-19T02:48:41.272Z,5.45
2022-12-19T02:51:08.189Z,5.51
2022-12-19T02:53:38.446Z,5.52
2022-12-19T02:56:25.405Z,5.44
2022-12-19T03:12:03.645Z,5.35
2022-12-19T03:14:31.849Z,5.08
2022-12-19T03:17:04.716Z,5.17
2022-12-19T03:19:32.170Z,5.12
2022-12-19T03:21:59.173Z,5.14
2022-12-19T03:24:26.550Z,5.17
2022-12-19T03:26:57.880Z,5.16
2022-12-19T03:29:48.413Z,5.18
2022-12-19T03:32:17.984Z,5.08
2022-12-19T03:34:51.953Z,5.16
2022-12-19T03:37:23.106Z,5.03
2022-12-19T03:39:56.102Z,4.92
2022-12-19T03:42:45.530Z,5.06
2022-12-19T03:45:17.495Z,5.11
2022-12-19T03:47:53.009Z,5.08
2022-12-19T03:50:19.909Z,5.16
2022-12-19T03:53:09.268Z,5.16
2022-12-19T03:55:46.153Z,5.10
2022-12-19T03:58:18.990Z,4.89
2022-12-19T04:00:49.241Z,4.40
2022-12-19T04:03:18.378Z,4.44
2022-12-19T04:05:48.494Z,4.52
2022-12-19T04:08:16.750Z,4.74
2022-12-19T04:10:50.134Z,4.85
2022-12-19T04:13:23.181Z,4.72
2022-12-19T04:15:59.049Z,4.69
2022-12-19T04:18:26.908Z,4.82
2022-12-19T04:21:08.298Z,5.05
2022-12-19T04:23:40.021Z,4.95
2022-12-19T04:26:08.689Z,4.91
2022-12-19T04:28:45.086Z,4.85
2022-12-19T04:31:14.662Z,4.91
2022-12-19T04:33:41.932Z,4.74
2022-12-19T04:36:13.384Z,4.62
2022-12-19T04:38:40.767Z,4.60
2022-12-19T04:41:07.857Z,4.61
2022-12-19T04:43:34.709Z,4.42
2022-12-19T04:46:01.942Z,4.41
2022-12-19T04:48:28.840Z,4.65
2022-12-19T04:50:56.463Z,4.82
2022-12-19T04:53:23.418Z,4.73
2022-12-19T04:55:50.293Z,4.71
2022-12-19T04:58:21.898Z,4.76
2022-12-19T05:00:49.075Z,4.31
2022-12-19T05:03:16.038Z,4.77
2022-12-19T05:05:43.518Z,4.97
2022-12-19T05:08:10.431Z,4.91
2022-12-19T05:10:37.792Z,5.14
2022-12-19T05:13:04.677Z,5.10
2022-12-19T05:15:31.585Z,4.96
2022-12-19T05:17:58.427Z,5.11
2022-12-19T05:20:25.293Z,4.86
2022-12-19T05:22:52.155Z,4.93
2022-12-19T05:25:19.043Z,4.49
2022-12-19T05:27:45.977Z,3.94
2022-12-19T05:30:13.270Z,4.14
2022-12-19T05:32:40.160Z,4.10
2022-12-19T05:35:08.269Z,4.00
2022-12-19T05:37:35.330Z,4.04
2022-12-19T05:40:02.445Z,3.77
2022-12-19T05:42:30.413Z,3.96
2022-12-19T05:44:57.979Z,3.90
2022-12-19T05:47:25.155Z,3.91
2022-12-19T05:49:52.012Z,3.76
2022-12-19T05:52:18.890Z,3.99
2022-12-19T05:54:45.820Z,3.94
2022-12-19T05:57:12.987Z,4.03
2022-12-19T05:59:39.869Z,4.22
2022-12-19T06:02:06.812Z,3.63
2022-12-19T06:04:34.114Z,3.94
2022-12-19T06:07:01.045Z,3.95
2022-12-19T06:09:28.807Z,3.85
2022-12-19T06:11:55.664Z,3.88
2022-12-19T06:14:22.968Z,3.51
2022-12-19T06:16:50.442Z,3.88
2022-12-19T06:19:20.026Z,4.01
2022-12-19T06:21:48.714Z,3.98
2022-12-19T06:24:15.978Z,3.93
2022-12-19T06:26:43.445Z,3.89
2022-12-19T06:29:10.368Z,3.75
2022-12-19T06:31:37.342Z,3.87
2022-12-19T06:34:04.236Z,3.97
2022-12-19T06:36:31.517Z,4.05
2022-12-19T06:38:59.185Z,3.94
2022-12-19T06:41:46.721Z,3.99
2022-12-19T06:44:15.687Z,4.12
2022-12-19T06:46:43.222Z,4.10
2022-12-19T06:49:11.245Z,4.12
2022-12-19T06:51:38.297Z,4.12
2022-12-19T06:54:05.345Z,4.26
2022-12-19T06:56:36.709Z,4.44
2022-12-19T06:59:04.352Z,4.65
2022-12-19T07:01:41.590Z,4.78
2022-12-19T07:04:12.516Z,4.76
2022-12-19T07:06:40.206Z,4.83
2022-12-19T07:09:09.252Z,4.61
2022-12-19T07:11:36.234Z,4.77
2022-12-19T07:14:03.190Z,4.98
2022-12-19T07:16:30.213Z,5.10
2022-12-19T07:18:57.500Z,4.99
2022-12-19T07:21:24.443Z,4.70
2022-12-19T07:23:51.483Z,4.83
2022-12-19T07:26:18.386Z,4.97
2022-12-19T07:28:45.370Z,5.26
2022-12-19T07:31:12.254Z,5.12
2022-12-19T07:33:39.124Z,5.18
2022-12-19T07:36:06.177Z,5.17
2022-12-19T07:38:33.056Z,5.29
2022-12-19T07:41:03.245Z,5.29
2022-12-19T07:43:30.217Z,5.35
2022-12-19T07:45:57.568Z,5.41
2022-12-19T07:48:24.766Z,5.41
2022-12-19T07:50:51.767Z,5.43
2022-12-19T07:53:18.633Z,5.52
2022-12-19T07:55:45.565Z,5.41
2022-12-19T07:58:15.242Z,5.57
2022-12-19T08:00:42.314Z,5.35
2022-12-19T08:03:09.265Z,5.67
2022-12-19T08:05:36.337Z,5.72
2022-12-19T08:08:03.390Z,5.71
2022-12-19T08:10:31.022Z,5.59
2022-12-19T08:12:57.969Z,5.59
2022-12-19T08:15:25.102Z,5.52
2022-12-19T08:17:54.438Z,5.57
2022-12-19T08:20:21.521Z,5.60
2022-12-19T08:22:48.680Z,5.66
2022-12-19T08:25:15.631Z,5.62
2022-12-19T08:27:43.098Z,5.63
2022-12-19T08:30:10.539Z,5.70
2022-12-19T08:32:37.443Z,5.70
2022-12-19T08:35:05.263Z,5.53
2022-12-19T08:37:32.796Z,5.60
2022-12-19T08:39:59.698Z,5.58
2022-12-19T08:42:26.560Z,5.73
2022-12-19T08:44:53.437Z,5.81
2022-12-19T08:47:20.413Z,5.56
2022-12-19T08:49:47.311Z,5.42
2022-12-19T08:52:14.186Z,5.34
2022-12-19T08:54:43.993Z,5.47
2022-12-19T08:57:10.960Z,5.58
2022-12-19T08:59:38.916Z,5.69
2022-12-19T09:02:07.148Z,5.58
2022-12-19T09:05:59.848Z,5.61
2022-12-19T09:07:21.171Z,5.48
2022-12-19T09:09:48.071Z,5.66
2022-12-19T09:12:16.368Z,5.90
2022-12-19T09:14:44.418Z,6.01
2022-12-19T09:17:11.525Z,6.10
2022-12-19T09:19:38.414Z,6.17
2022-12-19T09:22:06.764Z,6.11
2022-12-19T09:24:33.650Z,6.01
2022-12-19T09:27:00.705Z,6.03
2022-12-19T09:29:32.225Z,6.22
2022-12-19T09:32:02.255Z,6.31
2022-12-19T09:34:36.259Z,6.36
2022-12-19T09:37:16.305Z,6.24
2022-12-19T09:39:48.205Z,6.12
2022-12-19T09:42:41.252Z,6.04
2022-12-19T09:45:31.549Z,6.13
2022-12-19T09:48:04.841Z,6.22
2022-12-19T09:50:43.692Z,6.33
2022-12-19T09:53:35.605Z,6.36
2022-12-19T09:56:03.041Z,6.52
2022-12-19T09:58:42.662Z,6.25
2022-12-19T10:01:41.187Z,6.45
2022-12-19T10:04:15.734Z,6.41
2022-12-19T10:07:18.500Z,6.48
2022-12-19T10:11:44.947Z,6.57
2022-12-19T10:12:50.959Z,6.85
2022-12-19T10:15:20.244Z,6.84
2022-12-19T10:17:58.416Z,6.77
2022-12-19T10:20:42.284Z,6.62
2022-12-19T10:23:22.776Z,6.52
2022-12-19T10:25:56.025Z,6.69
2022-12-19T10:28:32.998Z,6.57
2022-12-19T10:31:23.294Z,6.72
2022-12-19T10:34:00.456Z,6.58
2022-12-19T10:36:55.721Z,6.69
2022-12-19T10:39:51.174Z,6.86
2022-12-19T10:42:46.788Z,6.75
2022-12-19T10:45:17.140Z,6.75
2022-12-19T10:47:44.058Z,6.88
2022-12-19T10:50:21.632Z,7.10
2022-12-19T10:52:56.828Z,7.12
2022-12-19T10:55:45.256Z,7.44
2022-12-19T10:58:15.175Z,7.47
2022-12-19T11:01:23.880Z,7.23
2022-12-19T11:04:12.810Z,7.21
2022-12-19T11:06:39.662Z,7.10
2022-12-19T11:09:46.791Z,7.05
2022-12-19T11:16:35.575Z,7.17
2022-12-19T11:22:32.282Z,7.08
2022-12-19T11:23:36.872Z,6.71
2022-12-19T11:29:25.377Z,6.72
2022-12-19T11:29:37.375Z,6.85
2022-12-19T11:30:36.480Z,6.49
2022-12-19T11:32:43.550Z,6.48
2022-12-19T11:35:24.787Z,6.36
2022-12-19T11:37:59.706Z,6.47
2022-12-19T11:40:50.940Z,6.41
2022-12-19T11:43:47.481Z,5.96
2022-12-19T11:46:22.325Z,6.12
2022-12-19T11:48:52.219Z,6.26
2022-12-19T11:51:27.991Z,6.34
2022-12-19T11:54:22.253Z,6.25
2022-12-19T11:56:49.201Z,6.22
2022-12-19T11:59:31.061Z,6.33
2022-12-19T12:02:01.121Z,6.40
2022-12-19T12:04:34.048Z,6.27
2022-12-19T12:07:03.297Z,6.14
2022-12-19T12:13:11.096Z,6.26
2022-12-19T12:19:24.548Z,6.27
2022-12-19T12:25:27.640Z,6.38
2022-12-19T12:31:01.285Z,6.55
2022-12-19T12:31:17.978Z,6.52
2022-12-19T12:31:54.110Z,6.14
2022-12-19T12:31:54.110Z,6.06
2022-12-19T12:35:36.475Z,6.09
2022-12-19T12:35:48.782Z,6.06
2022-12-19T12:38:14.418Z,5.95
2022-12-19T12:40:31.871Z,5.74
2022-12-19T12:43:17.955Z,5.66
2022-12-19T12:45:45.473Z,5.83
2022-12-19T12:48:40.762Z,5.86
2022-12-19T12:51:08.193Z,5.76
2022-12-19T12:53:38.537Z,5.88
2022-12-19T12:56:07.703Z,5.82
2022-12-19T12:58:43.806Z,5.82
2022-12-19T13:01:20.369Z,5.67
2022-12-19T13:03:55.235Z,5.76
2022-12-19T13:06:26.867Z,5.87
2022-12-19T13:09:08.581Z,6.02
2022-12-19T13:12:03.717Z,5.91
2022-12-19T13:14:40.629Z,6.02
2022-12-19T13:17:09.183Z,5.86
2022-12-19T13:19:38.985Z,5.60
2022-12-19T13:22:08.949Z,5.66
2022-12-19T13:24:46.058Z,5.77
2022-12-19T13:27:18.696Z,5.96
2022-12-19T13:30:00.725Z,5.77
2022-12-19T13:32:41.320Z,5.23
2022-12-19T13:36:03.788Z,5.25
2022-12-19T13:39:57.816Z,5.23
2022-12-19T13:41:47.233Z,5.51
2022-12-19T13:44:14.883Z,5.11
2022-12-19T13:46:43.818Z,5.08
2022-12-19T13:49:17.534Z,5.07
2022-12-19T13:51:50.258Z,5.29
2022-12-19T13:54:26.949Z,4.82
2022-12-19T13:56:55.867Z,5.09
2022-12-19T13:59:26.477Z,4.96
2022-12-19T14:01:54.588Z,5.06
2022-12-19T14:04:33.390Z,5.04
2022-12-19T14:07:24.945Z,4.71
2022-12-19T14:11:34.975Z,4.74
2022-12-19T14:13:40.666Z,4.77
2022-12-19T14:16:07.573Z,4.87
2022-12-19T14:18:45.379Z,5.00
2022-12-19T14:22:10.512Z,4.88
2022-12-19T14:24:22.359Z,4.99
2022-12-19T14:28:18.230Z,5.00
2022-12-19T14:30:28.110Z,4.77
2022-12-19T14:33:43.931Z,5.06
2022-12-19T14:36:12.189Z,4.87
2022-12-19T14:39:27.666Z,4.88
2022-12-19T14:42:02.336Z,4.59
2022-12-19T15:04:48.493Z,3.38
2022-12-19T15:07:08.731Z,3.32
2022-12-19T15:11:02.797Z,3.09
2022-12-19T15:14:50.493Z,2.94
2022-12-19T15:15:48.723Z,2.85
2022-12-19T15:18:32.772Z,2.88
2022-12-19T15:21:09.592Z,2.85
2022-12-19T15:23:36.602Z,2.79
2022-12-19T15:26:07.299Z,2.76
2022-12-19T15:28:43.788Z,2.70
2022-12-19T15:31:29.866Z,2.70
2022-12-19T15:34:32.928Z,2.92
2022-12-19T15:36:44.128Z,2.76
2022-12-19T15:39:11.114Z,2.67
2022-12-19T15:41:37.996Z,2.61
2022-12-19T15:44:15.802Z,2.62
2022-12-19T15:46:48.372Z,2.90
2022-12-19T15:49:21.195Z,2.91
2022-12-19T15:51:48.996Z,2.98
2022-12-19T15:57:03.579Z,2.99
2022-12-19T15:59:48.769Z,3.17
2022-12-19T16:02:22.729Z,3.26
2022-12-19T16:04:52.319Z,3.00
2022-12-19T16:07:23.864Z,3.10
2022-12-19T16:09:51.937Z,3.28
2022-12-19T16:12:31.688Z,3.49
2022-12-19T16:15:01.474Z,3.35
2022-12-19T16:17:32.996Z,3.52
2022-12-19T16:19:59.899Z,3.53
2022-12-19T16:22:29.367Z,3.61
2022-12-19T16:24:57.257Z,3.69
2022-12-19T16:27:27.148Z,3.71
2022-12-19T16:29:55.420Z,3.41
2022-12-19T16:32:24.489Z,3.29
2022-12-19T16:34:52.638Z,3.26
2022-12-19T16:37:19.638Z,3.08
2022-12-19T16:39:46.463Z,2.86
2022-12-19T16:42:17.227Z,2.76
2022-12-19T16:44:47.126Z,2.83
2022-12-19T16:47:16.887Z,2.95
2022-12-19T16:49:44.784Z,2.98
2022-12-19T16:52:12.417Z,3.05
2022-12-19T16:54:39.499Z,3.03
2022-12-19T16:57:16.033Z,3.04
2022-12-19T16:59:42.972Z,3.02
2022-12-19T17:02:43.523Z,3.14
2022-12-19T17:05:22.542Z,3.10
2022-12-19T17:07:50.512Z,3.22
2022-12-19T17:10:25.690Z,3.17
2022-12-19T17:12:54.677Z,3.09
2022-12-19T17:15:28.588Z,3.01
2022-12-19T17:18:01.053Z,2.96
2022-12-19T17:20:35.125Z,2.99
2022-12-19T17:23:02.162Z,2.68
2022-12-19T17:25:29.137Z,2.78
2022-12-19T17:27:56.300Z,2.80
2022-12-19T17:30:23.450Z,2.93
2022-12-19T17:32:52.948Z,2.84
2022-12-19T17:35:28.278Z,2.65
2022-12-19T17:37:57.238Z,2.42
2022-12-19T17:40:27.732Z,2.53
2022-12-19T17:42:55.085Z,2.45
2022-12-19T17:45:23.647Z,2.37
2022-12-19T17:47:54.169Z,2.37
2022-12-19T17:50:27.994Z,2.36
2022-12-19T17:52:56.791Z,2.33
2022-12-19T17:55:26.994Z,2.46
2022-12-19T17:57:54.718Z,2.69
2022-12-19T18:00:30.085Z,2.43
2022-12-19T18:03:02.503Z,2.65
2022-12-19T18:05:33.681Z,2.74
2022-12-19T18:08:00.584Z,2.55
2022-12-19T18:10:30.573Z,2.27
2022-12-19T18:12:57.858Z,2.11
2022-12-19T18:15:25.517Z,1.99
2022-12-19T18:17:53.669Z,1.76
2022-12-19T18:20:30.952Z,1.81
2022-12-19T18:22:59.796Z,1.80
2022-12-19T18:25:29.736Z,1.36
2022-12-19T18:27:57.644Z,1.37
2022-12-19T18:30:25.763Z,1.06
2022-12-19T18:32:57.827Z,0.93
2022-12-19T18:35:42.891Z,0.93
2022-12-19T18:38:15.140Z,0.93
2022-12-19T18:40:42.639Z,0.91
2022-12-19T18:43:14.293Z,0.92
2022-12-19T18:45:47.643Z,1.06
2022-12-19T18:48:22.705Z,1.20
2022-12-19T18:50:49.658Z,0.89
2022-12-19T18:53:21.681Z,0.89
2022-12-19T18:55:49.415Z,1.01
2022-12-19T18:58:16.363Z,1.19
2022-12-19T19:00:43.949Z,0.93
2022-12-19T19:03:16.386Z,0.62
2022-12-19T19:05:44.143Z,0.50
2022-12-19T19:08:23.840Z,0.72
2022-12-19T19:11:01.670Z,0.71
2022-12-19T19:13:28.760Z,1.06
2022-12-19T19:16:11.519Z,1.21
2022-12-19T19:18:40.277Z,1.11
2022-12-19T19:21:11.250Z,0.93
2022-12-19T19:23:55.288Z,0.98
2022-12-19T19:26:22.328Z,1.15
2022-12-19T19:28:52.412Z,1.40
2022-12-19T19:31:24.707Z,1.64
2022-12-19T19:33:56.583Z,1.73
2022-12-19T19:36:28.158Z,1.39
2022-12-19T19:38:57.135Z,1.43
2022-12-19T19:41:32.283Z,1.57
2022-12-19T19:44:04.607Z,1.24
2022-12-19T19:46:32.465Z,0.94
2022-12-19T19:48:59.740Z,1.11
2022-12-19T19:51:28.767Z,1.12
2022-12-19T19:53:56.164Z,1.14
2022-12-19T19:56:23.139Z,1.26
2022-12-19T19:58:50.152Z,1.31
2022-12-19T20:01:17.095Z,1.45
2022-12-19T20:03:45.230Z,1.56
2022-12-19T20:06:12.641Z,1.54
2022-12-19T20:08:40.905Z,1.66
2022-12-19T20:11:09.366Z,1.58
2022-12-19T20:13:37.655Z,1.54
2022-12-19T20:16:13.627Z,1.34
2022-12-19T20:18:41.691Z,1.29
2022-12-19T20:21:13.792Z,1.45
2022-12-19T20:23:44.337Z,1.45
2022-12-19T20:26:16.433Z,1.41
2022-12-19T20:28:49.595Z,0.92
2022-12-19T20:31:23.124Z,0.81
2022-12-19T20:33:53.112Z,1.08
2022-12-19T20:36:20.699Z,0.93
2022-12-19T20:38:48.267Z,1.07
2022-12-19T20:41:16.597Z,1.20
2022-12-19T20:43:43.922Z,0.74
2022-12-19T20:46:14.559Z,0.73
2022-12-19T20:48:43.013Z,0.42
2022-12-19T20:51:10.213Z,0.39
2022-12-19T20:53:39.062Z,0.47
2022-12-19T20:56:07.503Z,0.58
2022-12-19T20:58:36.367Z,0.59
2022-12-19T21:01:06.952Z,0.55
2022-12-19T21:03:35.202Z,0.64
2022-12-19T21:06:02.866Z,0.57
2022-12-19T21:08:30.388Z,0.64
2022-12-19T21:10:57.432Z,0.54
2022-12-19T21:13:24.394Z,0.44
2022-12-19T21:15:59.165Z,0.34
2022-12-19T21:18:33.545Z,0.62
2022-12-19T21:21:00.614Z,0.55
2022-12-19T21:23:28.249Z,0.60
2022-12-19T21:25:59.517Z,0.29
2022-12-19T21:28:26.862Z,0.16
2022-12-19T21:31:05.754Z,0.18
2022-12-19T21:33:33.002Z,0.21
2022-12-19T21:36:11.553Z,-0.18
2022-12-19T21:38:38.553Z,-0.05
2022-12-19T21:41:07.320Z,0.03
2022-12-19T21:43:37.158Z,0.04
2022-12-19T21:46:10.866Z,-0.04
2022-12-19T21:48:40.359Z,0.05
2022-12-19T21:51:09.312Z,0.16
2022-12-19T21:53:37.544Z,0.34
2022-12-19T21:56:25.726Z,-0.09
2022-12-19T21:59:00.852Z,-0.35
2022-12-19T22:01:29.438Z,-0.20
2022-12-19T22:04:02.967Z,-0.15
2022-12-19T22:06:34.895Z,-0.12
2022-12-19T22:09:02.052Z,0.08
2022-12-19T22:11:30.203Z,0.10
2022-12-19T22:14:00.544Z,0.08
2022-12-19T22:16:28.585Z,-0.05
2022-12-19T22:18:56.550Z,-0.12
2022-12-19T22:21:24.280Z,0.21
2022-12-19T22:23:56.166Z,0.13
2022-12-19T22:26:23.805Z,0.16
2022-12-19T22:28:52.712Z,0.15
2022-12-19T22:31:29.039Z,0.04
2022-12-19T22:34:05.391Z,-0.20
2022-12-19T22:36:33.678Z,-0.39
2022-12-19T22:39:02.888Z,-0.18
2022-12-19T22:41:30.063Z,-0.28
2022-12-19T22:43:57.831Z,-0.20
2022-12-19T22:46:27.904Z,-0.31
2022-12-19T22:49:04.046Z,-0.41
2022-12-19T22:51:32.971Z,-0.43
2022-12-19T22:54:00.340Z,-0.56
2022-12-19T22:56:28.753Z,-0.87
2022-12-19T22:58:58.612Z,-0.91
2022-12-19T23:01:35.241Z,-0.93
2022-12-19T23:04:04.374Z,-1.00
2022-12-19T23:06:34.455Z,-0.78
2022-12-19T23:09:01.689Z,-0.71
2022-12-19T23:11:36.937Z,-0.46
2022-12-19T23:14:05.565Z,-0.40
2022-12-19T23:16:32.508Z,-0.23
2022-12-19T23:18:59.440Z,-0.32
2022-12-19T23:21:26.865Z,-0.66
2022-12-19T23:23:55.738Z,-0.82
2022-12-19T23:26:26.257Z,-0.88
2022-12-19T23:28:58.162Z,-0.82
2022-12-19T23:31:25.890Z,-0.91
2022-12-19T23:33:53.594Z,-0.82
2022-12-19T23:36:38.098Z,-0.65
2022-12-19T23:39:07.361Z,-0.88
2022-12-19T23:41:34.351Z,-0.94
2022-12-19T23:44:01.276Z,-1.04
2022-12-19T23:46:28.358Z,-1.32
2022-12-19T23:48:56.012Z,-1.35
2022-12-19T23:51:25.352Z,-1.06
2022-12-19T23:53:53.303Z,-0.96
2022-12-19T23:56:30.502Z,-1.07
2022-12-19T23:58:58.226Z,-1.01
